sensor_id;sensor_type;location;lat;lon;timestamp;temperature;humidity
18781;DHT22;9519;51.890;8.970;2023-02-28T00:03:20;1.80;99.90
18781;DHT22;9519;51.890;8.970;2023-02-28T00:08:22;2.00;99.90
18781;DHT22;9519;51.890;8.970;2023-02-28T00:13:25;2.00;97.00
18781;DHT22;9519;51.890;8.970;2023-02-28T00:18:27;2.00;99.90
18781;DHT22;9519;51.890;8.970;2023-02-28T00:23:30;1.90;92.70
18781;DHT22;9519;51.890;8.970;2023-02-28T00:28:33;2.00;92.70
18781;DHT22;9519;51.890;8.970;2023-02-28T00:38:38;2.00;92.70
18781;DHT22;9519;51.890;8.970;2023-02-28T00:43:42;2.00;92.70
18781;DHT22;9519;51.890;8.970;2023-02-28T00:53:47;2.00;95.20
18781;DHT22;9519;51.890;8.970;2023-02-28T00:58:50;1.90;92.60
18781;DHT22;9519;51.890;8.970;2023-02-28T01:08:54;1.50;99.90
18781;DHT22;9519;51.890;8.970;2023-02-28T01:13:58;1.70;92.60
18781;DHT22;9519;51.890;8.970;2023-02-28T01:24:04;1.80;99.90
18781;DHT22;9519;51.890;8.970;2023-02-28T01:29:08;1.40;92.50
18781;DHT22;9519;51.890;8.970;2023-02-28T01:50:09;0.70;99.10
18781;DHT22;9519;51.890;8.970;2023-02-28T01:55:18;1.00;92.70
18781;DHT22;9519;51.890;8.970;2023-02-28T02:00:28;1.00;92.70
18781;DHT22;9519;51.890;8.970;2023-02-28T02:10:38;0.60;99.90
18781;DHT22;9519;51.890;8.970;2023-02-28T02:15:48;0.70;92.70
18781;DHT22;9519;51.890;8.970;2023-02-28T02:21:24;0.70;99.90
18781;DHT22;9519;51.890;8.970;2023-02-28T02:27:09;0.60;92.70
18781;DHT22;9519;51.890;8.970;2023-02-28T02:32:44;0.50;92.80
18781;DHT22;9519;51.890;8.970;2023-02-28T02:38:05;0.40;92.70
18781;DHT22;9519;51.890;8.970;2023-02-28T02:43:15;0.40;92.80
18781;DHT22;9519;51.890;8.970;2023-02-28T02:48:25;0.20;99.90
18781;DHT22;9519;51.890;8.970;2023-02-28T02:53:36;0.20;92.70
18781;DHT22;9519;51.890;8.970;2023-02-28T02:58:44;0.20;92.70
18781;DHT22;9519;51.890;8.970;2023-02-28T03:08:52;0.00;92.70
18781;DHT22;9519;51.890;8.970;2023-02-28T03:14:07;0.00;92.70
18781;DHT22;9519;51.890;8.970;2023-02-28T03:19:47;0.20;99.90
18781;DHT22;9519;51.890;8.970;2023-02-28T03:25:03;-0.20;92.70
18781;DHT22;9519;51.890;8.970;2023-02-28T03:30:13;-0.20;92.70
18781;DHT22;9519;51.890;8.970;2023-02-28T03:35:22;-0.30;99.90
18781;DHT22;9519;51.890;8.970;2023-02-28T03:40:32;-0.20;92.70
18781;DHT22;9519;51.890;8.970;2023-02-28T03:45:39;-0.30;92.70
18781;DHT22;9519;51.890;8.970;2023-02-28T03:50:45;-0.40;92.80
18781;DHT22;9519;51.890;8.970;2023-02-28T03:55:54;-0.40;92.80
18781;DHT22;9519;51.890;8.970;2023-02-28T04:01:02;-0.40;93.00
18781;DHT22;9519;51.890;8.970;2023-02-28T04:06:15;-0.50;93.00
18781;DHT22;9519;51.890;8.970;2023-02-28T04:11:23;-0.60;93.10
18781;DHT22;9519;51.890;8.970;2023-02-28T04:16:31;-0.50;93.20
18781;DHT22;9519;51.890;8.970;2023-02-28T04:21:37;-0.60;93.20
18781;DHT22;9519;51.890;8.970;2023-02-28T04:26:43;-0.70;93.30
18781;DHT22;9519;51.890;8.970;2023-02-28T04:41:52;-0.80;93.50
18781;DHT22;9519;51.890;8.970;2023-02-28T04:57:00;-0.70;93.80
18781;DHT22;9519;51.890;8.970;2023-02-28T05:12:11;-0.80;93.90
18781;DHT22;9519;51.890;8.970;2023-02-28T05:27:19;-0.90;94.10
18781;DHT22;9519;51.890;8.970;2023-02-28T05:42:27;-0.90;94.20
18781;DHT22;9519;51.890;8.970;2023-02-28T05:57:36;-1.00;94.20
18781;DHT22;9519;51.890;8.970;2023-02-28T06:02:39;-0.90;99.90
18781;DHT22;9519;51.890;8.970;2023-02-28T06:12:45;-1.10;94.20
18781;DHT22;9519;51.890;8.970;2023-02-28T06:27:56;-1.20;94.20
18781;DHT22;9519;51.890;8.970;2023-02-28T06:43:06;-1.30;94.30
18781;DHT22;9519;51.890;8.970;2023-02-28T06:58:14;-1.20;94.70
18781;DHT22;9519;51.890;8.970;2023-02-28T07:03:19;-1.10;94.80
18781;DHT22;9519;51.890;8.970;2023-02-28T07:13:25;-0.70;95.20
18781;DHT22;9519;51.890;8.970;2023-02-28T07:28:34;-0.30;95.40
18781;DHT22;9519;51.890;8.970;2023-02-28T07:33:37;-0.10;95.50
18781;DHT22;9519;51.890;8.970;2023-02-28T07:43:42;0.10;99.90
18781;DHT22;9519;51.890;8.970;2023-02-28T07:48:45;0.20;99.90
18781;DHT22;9519;51.890;8.970;2023-02-28T07:58:51;0.30;95.40
18781;DHT22;9519;51.890;8.970;2023-02-28T08:08:57;0.70;99.90
18781;DHT22;9519;51.890;8.970;2023-02-28T08:14:00;0.60;99.90
18781;DHT22;9519;51.890;8.970;2023-02-28T08:19:02;0.70;99.90
18781;DHT22;9519;51.890;8.970;2023-02-28T08:24:05;0.70;95.90
18781;DHT22;9519;51.890;8.970;2023-02-28T08:29:09;0.80;99.90
18781;DHT22;9519;51.890;8.970;2023-02-28T08:34:14;0.90;99.90
18781;DHT22;9519;51.890;8.970;2023-02-28T08:39:17;1.00;99.90
18781;DHT22;9519;51.890;8.970;2023-02-28T08:44:21;1.30;96.30
18781;DHT22;9519;51.890;8.970;2023-02-28T08:49:23;1.30;99.90
18781;DHT22;9519;51.890;8.970;2023-02-28T08:59:32;1.90;96.30
18781;DHT22;9519;51.890;8.970;2023-02-28T09:04:34;2.40;99.90
18781;DHT22;9519;51.890;8.970;2023-02-28T09:09:36;2.30;99.90
18781;DHT22;9519;51.890;8.970;2023-02-28T09:14:55;2.50;99.90
18781;DHT22;9519;51.890;8.970;2023-02-28T09:19:57;2.40;99.90
18781;DHT22;9519;51.890;8.970;2023-02-28T09:30:03;2.90;99.90
18781;DHT22;9519;51.890;8.970;2023-02-28T09:35:07;3.00;99.90
18781;DHT22;9519;51.890;8.970;2023-02-28T09:40:14;3.10;94.80
18781;DHT22;9519;51.890;8.970;2023-02-28T09:45:24;3.20;99.90
18781;DHT22;9519;51.890;8.970;2023-02-28T09:50:34;3.10;94.20
18781;DHT22;9519;51.890;8.970;2023-02-28T09:55:43;3.40;99.90
18781;DHT22;9519;51.890;8.970;2023-02-28T10:00:56;3.40;99.90
18781;DHT22;9519;51.890;8.970;2023-02-28T10:06:08;3.80;99.90
18781;DHT22;9519;51.890;8.970;2023-02-28T10:11:16;3.70;99.90
18781;DHT22;9519;51.890;8.970;2023-02-28T10:16:26;3.60;93.90
18781;DHT22;9519;51.890;8.970;2023-02-28T10:21:36;3.80;99.90
18781;DHT22;9519;51.890;8.970;2023-02-28T10:26:43;3.70;99.90
18781;DHT22;9519;51.890;8.970;2023-02-28T10:31:50;4.10;99.90
18781;DHT22;9519;51.890;8.970;2023-02-28T10:36:53;4.40;99.90
18781;DHT22;9519;51.890;8.970;2023-02-28T10:41:56;4.40;99.90
18781;DHT22;9519;51.890;8.970;2023-02-28T10:46:59;4.20;99.90
18781;DHT22;9519;51.890;8.970;2023-02-28T10:52:02;4.60;99.90
18781;DHT22;9519;51.890;8.970;2023-02-28T10:57:17;4.60;99.90
18781;DHT22;9519;51.890;8.970;2023-02-28T11:02:36;4.40;95.70
18781;DHT22;9519;51.890;8.970;2023-02-28T11:07:41;4.80;99.90
18781;DHT22;9519;51.890;8.970;2023-02-28T11:12:44;4.70;99.90
18781;DHT22;9519;51.890;8.970;2023-02-28T11:17:55;4.60;99.90
18781;DHT22;9519;51.890;8.970;2023-02-28T11:23:02;4.80;99.90
18781;DHT22;9519;51.890;8.970;2023-02-28T11:28:09;4.90;99.90
18781;DHT22;9519;51.890;8.970;2023-02-28T11:33:29;4.70;99.90
18781;DHT22;9519;51.890;8.970;2023-02-28T11:38:34;4.90;99.90
18781;DHT22;9519;51.890;8.970;2023-02-28T11:43:51;4.50;99.90
18781;DHT22;9519;51.890;8.970;2023-02-28T11:49:14;4.70;99.90
18781;DHT22;9519;51.890;8.970;2023-02-28T12:00:14;4.50;99.90
18781;DHT22;9519;51.890;8.970;2023-02-28T12:05:31;4.70;99.90
18781;DHT22;9519;51.890;8.970;2023-02-28T12:10:52;5.00;99.90
18781;DHT22;9519;51.890;8.970;2023-02-28T12:16:47;5.00;99.90
18781;DHT22;9519;51.890;8.970;2023-02-28T12:22:22;5.20;99.90
18781;DHT22;9519;51.890;8.970;2023-02-28T12:27:34;6.10;91.50
18781;DHT22;9519;51.890;8.970;2023-02-28T12:32:42;4.90;99.90
18781;DHT22;9519;51.890;8.970;2023-02-28T12:37:53;5.30;99.90
18781;DHT22;9519;51.890;8.970;2023-02-28T12:43:01;4.90;99.90
18781;DHT22;9519;51.890;8.970;2023-02-28T12:48:09;4.90;99.90
18781;DHT22;9519;51.890;8.970;2023-02-28T12:53:23;5.10;91.00
18781;DHT22;9519;51.890;8.970;2023-02-28T12:58:33;5.50;99.90
18781;DHT22;9519;51.890;8.970;2023-02-28T13:04:00;5.80;99.90
18781;DHT22;9519;51.890;8.970;2023-02-28T13:09:17;5.70;99.90
18781;DHT22;9519;51.890;8.970;2023-02-28T13:14:28;5.70;90.00
18781;DHT22;9519;51.890;8.970;2023-02-28T13:19:36;6.00;99.90
18781;DHT22;9519;51.890;8.970;2023-02-28T13:24:46;5.80;90.20
18781;DHT22;9519;51.890;8.970;2023-02-28T13:29:52;5.90;89.80
18781;DHT22;9519;51.890;8.970;2023-02-28T13:35:15;6.30;99.90
18781;DHT22;9519;51.890;8.970;2023-02-28T13:40:38;6.10;89.40
18781;DHT22;9519;51.890;8.970;2023-02-28T13:46:04;6.10;89.30
18781;DHT22;9519;51.890;8.970;2023-02-28T13:51:38;6.10;87.90
18781;DHT22;9519;51.890;8.970;2023-02-28T13:56:50;6.00;99.90
18781;DHT22;9519;51.890;8.970;2023-02-28T14:07:48;6.10;86.50
18781;DHT22;9519;51.890;8.970;2023-02-28T14:13:01;6.30;87.30
18781;DHT22;9519;51.890;8.970;2023-02-28T14:18:20;6.40;87.10
18781;DHT22;9519;51.890;8.970;2023-02-28T14:23:35;6.70;86.40
18781;DHT22;9519;51.890;8.970;2023-02-28T14:28:59;6.80;85.80
18781;DHT22;9519;51.890;8.970;2023-02-28T14:34:35;6.90;85.50
18781;DHT22;9519;51.890;8.970;2023-02-28T14:39:44;7.10;86.00
18781;DHT22;9519;51.890;8.970;2023-02-28T14:44:54;7.30;85.50
18781;DHT22;9519;51.890;8.970;2023-02-28T14:49:58;7.40;85.90
18781;DHT22;9519;51.890;8.970;2023-02-28T14:55:04;7.60;83.60
18781;DHT22;9519;51.890;8.970;2023-02-28T15:00:20;7.70;82.90
18781;DHT22;9519;51.890;8.970;2023-02-28T15:05:26;7.70;82.30
18781;DHT22;9519;51.890;8.970;2023-02-28T15:10:31;7.80;82.50
18781;DHT22;9519;51.890;8.970;2023-02-28T15:15:49;7.90;83.20
18781;DHT22;9519;51.890;8.970;2023-02-28T15:20:55;8.10;82.10
18781;DHT22;9519;51.890;8.970;2023-02-28T15:26:00;8.20;81.30
18781;DHT22;9519;51.890;8.970;2023-02-28T15:31:20;8.30;80.80
18781;DHT22;9519;51.890;8.970;2023-02-28T15:36:28;8.30;79.00
18781;DHT22;9519;51.890;8.970;2023-02-28T15:41:36;8.20;78.90
18781;DHT22;9519;51.890;8.970;2023-02-28T15:46:44;8.10;78.30
18781;DHT22;9519;51.890;8.970;2023-02-28T15:51:58;8.00;77.20
18781;DHT22;9519;51.890;8.970;2023-02-28T15:57:05;7.70;76.30
18781;DHT22;9519;51.890;8.970;2023-02-28T16:02:15;7.50;76.20
18781;DHT22;9519;51.890;8.970;2023-02-28T16:07:20;7.10;76.40
18781;DHT22;9519;51.890;8.970;2023-02-28T16:12:25;6.80;77.10
18781;DHT22;9519;51.890;8.970;2023-02-28T16:17:34;6.20;97.70
18781;DHT22;9519;51.890;8.970;2023-02-28T16:22:39;6.20;77.20
18781;DHT22;9519;51.890;8.970;2023-02-28T16:27:43;6.10;97.60
18781;DHT22;9519;51.890;8.970;2023-02-28T16:32:52;5.70;98.30
18781;DHT22;9519;51.890;8.970;2023-02-28T16:37:56;5.60;77.20
18781;DHT22;9519;51.890;8.970;2023-02-28T16:42:59;5.70;99.00
18781;DHT22;9519;51.890;8.970;2023-02-28T16:48:10;5.30;98.90
18781;DHT22;9519;51.890;8.970;2023-02-28T16:53:13;5.30;98.80
18781;DHT22;9519;51.890;8.970;2023-02-28T16:58:16;5.30;99.60
18781;DHT22;9519;51.890;8.970;2023-02-28T17:03:23;4.80;99.80
18781;DHT22;9519;51.890;8.970;2023-02-28T17:08:26;4.80;78.50
18781;DHT22;9519;51.890;8.970;2023-02-28T17:13:29;4.90;99.80
18781;DHT22;9519;51.890;8.970;2023-02-28T17:18:34;4.10;99.90
18781;DHT22;9519;51.890;8.970;2023-02-28T17:23:36;4.40;99.50
18781;DHT22;9519;51.890;8.970;2023-02-28T17:28:39;4.60;99.70
18781;DHT22;9519;51.890;8.970;2023-02-28T17:33:42;4.30;99.90
18781;DHT22;9519;51.890;8.970;2023-02-28T17:38:44;4.20;99.90
18781;DHT22;9519;51.890;8.970;2023-02-28T17:43:47;4.10;99.90
18781;DHT22;9519;51.890;8.970;2023-02-28T17:48:52;3.90;99.90
18781;DHT22;9519;51.890;8.970;2023-02-28T17:53:54;3.40;99.90
18781;DHT22;9519;51.890;8.970;2023-02-28T17:58:57;3.70;99.90
18781;DHT22;9519;51.890;8.970;2023-02-28T18:04:00;4.00;99.90
18781;DHT22;9519;51.890;8.970;2023-02-28T18:09:02;3.40;99.90
18781;DHT22;9519;51.890;8.970;2023-02-28T18:14:04;3.60;99.90
18781;DHT22;9519;51.890;8.970;2023-02-28T18:19:08;3.40;80.20
18781;DHT22;9519;51.890;8.970;2023-02-28T18:24:15;3.20;99.90
18781;DHT22;9519;51.890;8.970;2023-02-28T18:29:20;3.30;99.90
18781;DHT22;9519;51.890;8.970;2023-02-28T18:34:25;3.20;80.70
18781;DHT22;9519;51.890;8.970;2023-02-28T18:39:29;3.20;80.90
18781;DHT22;9519;51.890;8.970;2023-02-28T18:44:31;3.10;99.70
18781;DHT22;9519;51.890;8.970;2023-02-28T18:49:35;3.00;99.90
18781;DHT22;9519;51.890;8.970;2023-02-28T19:04:43;2.90;99.90
18781;DHT22;9519;51.890;8.970;2023-02-28T19:09:45;3.00;99.90
18781;DHT22;9519;51.890;8.970;2023-02-28T19:19:51;2.70;99.90
18781;DHT22;9519;51.890;8.970;2023-02-28T19:29:56;2.70;99.90
18781;DHT22;9519;51.890;8.970;2023-02-28T19:35:00;2.80;99.90
18781;DHT22;9519;51.890;8.970;2023-02-28T19:40:04;2.60;82.70
18781;DHT22;9519;51.890;8.970;2023-02-28T19:45:09;2.50;99.90
18781;DHT22;9519;51.890;8.970;2023-02-28T19:50:17;2.40;99.90
18781;DHT22;9519;51.890;8.970;2023-02-28T19:55:20;2.20;99.90
18781;DHT22;9519;51.890;8.970;2023-02-28T20:00:22;2.30;99.90
18781;DHT22;9519;51.890;8.970;2023-02-28T20:05:25;2.00;99.90
18781;DHT22;9519;51.890;8.970;2023-02-28T20:10:27;2.50;94.10
18781;DHT22;9519;51.890;8.970;2023-02-28T20:15:30;2.00;99.90
18781;DHT22;9519;51.890;8.970;2023-02-28T20:20:34;2.10;99.90
18781;DHT22;9519;51.890;8.970;2023-02-28T20:25:38;1.80;83.90
18781;DHT22;9519;51.890;8.970;2023-02-28T20:30:40;1.90;99.90
18781;DHT22;9519;51.890;8.970;2023-02-28T20:35:44;1.70;84.20
18781;DHT22;9519;51.890;8.970;2023-02-28T20:40:46;1.60;99.90
18781;DHT22;9519;51.890;8.970;2023-02-28T20:45:51;1.70;99.90
18781;DHT22;9519;51.890;8.970;2023-02-28T20:50:57;1.70;99.90
18781;DHT22;9519;51.890;8.970;2023-02-28T20:56:02;1.20;99.90
18781;DHT22;9519;51.890;8.970;2023-02-28T21:01:08;1.50;99.90
18781;DHT22;9519;51.890;8.970;2023-02-28T21:06:18;1.40;85.00
18781;DHT22;9519;51.890;8.970;2023-02-28T21:11:23;1.30;85.10
18781;DHT22;9519;51.890;8.970;2023-02-28T21:16:27;1.00;99.90
18781;DHT22;9519;51.890;8.970;2023-02-28T21:21:33;1.30;99.90
18781;DHT22;9519;51.890;8.970;2023-02-28T21:26:38;1.00;92.50
18781;DHT22;9519;51.890;8.970;2023-02-28T21:31:41;1.20;99.90
18781;DHT22;9519;51.890;8.970;2023-02-28T21:36:45;1.00;99.40
18781;DHT22;9519;51.890;8.970;2023-02-28T21:41:47;0.80;99.90
18781;DHT22;9519;51.890;8.970;2023-02-28T21:46:50;1.10;99.90
18781;DHT22;9519;51.890;8.970;2023-02-28T21:51:56;1.10;99.90
18781;DHT22;9519;51.890;8.970;2023-02-28T21:56:59;0.70;93.90
18781;DHT22;9519;51.890;8.970;2023-02-28T22:02:01;0.70;99.90
18781;DHT22;9519;51.890;8.970;2023-02-28T22:07:06;0.80;90.90
18781;DHT22;9519;51.890;8.970;2023-02-28T22:12:08;0.80;99.90
18781;DHT22;9519;51.890;8.970;2023-02-28T22:17:10;0.80;99.90
18781;DHT22;9519;51.890;8.970;2023-02-28T22:22:13;0.60;86.80
18781;DHT22;9519;51.890;8.970;2023-02-28T22:32:17;0.40;99.90
18781;DHT22;9519;51.890;8.970;2023-02-28T22:37:21;0.70;99.90
18781;DHT22;9519;51.890;8.970;2023-02-28T22:47:25;0.70;99.90
18781;DHT22;9519;51.890;8.970;2023-02-28T22:52:29;0.60;99.90
18781;DHT22;9519;51.890;8.970;2023-02-28T22:57:31;0.70;99.90
18781;DHT22;9519;51.890;8.970;2023-02-28T23:02:33;0.60;99.90
18781;DHT22;9519;51.890;8.970;2023-02-28T23:07:38;0.40;99.90
18781;DHT22;9519;51.890;8.970;2023-02-28T23:22:54;0.20;87.60
18781;DHT22;9519;51.890;8.970;2023-02-28T23:27:56;0.10;99.90
18781;DHT22;9519;51.890;8.970;2023-02-28T23:38:02;0.10;99.90
18781;DHT22;9519;51.890;8.970;2023-02-28T23:53:10;-0.20;88.30
